Time;durP1;ratioP1;P1;durP2;ratioP2;P2;SDS_P1;SDS_P2;PMS_P1;PMS_P2;Temp;Humidity;BMP_temperature;BMP_pressure;BME280_temperature;BME280_humidity;BME280_pressure;Samples;Min_cycle;Max_cycle;Signal;HPM_P1;HPM_P2
2023/01/02 08:54:25;;;;;;;15.03;7.63;;;;;;;9.89;87.37;100206.28;6010118;22;1482826;-69
2023/01/02 08:56:52;;;;;;;19.33;8.00;;;;;;;9.85;87.45;100196.09;5050032;23;20209;-69
2023/01/02 08:59:22;;;;;;;20.43;7.93;;;;;;;9.89;87.08;100200.13;5031288;23;20228;-71
2023/01/02 09:01:49;;;;;;;18.17;8.00;;;;;;;9.92;87.52;100190.03;5047583;23;20219;-69
2023/01/02 09:04:16;;;;;;;19.07;8.20;;;;;;;10.04;87.03;100197.81;5042423;23;20313;-74
2023/01/02 09:06:43;;;;;;;21.37;8.67;;;;;;;10.11;86.60;100194.44;5018356;23;20245;-74
2023/01/02 09:09:12;;;;;;;18.60;7.97;;;;;;;10.07;85.89;100201.03;5020522;23;20214;-69
2023/01/02 09:11:47;;;;;;;17.27;7.47;;;;;;;10.18;85.58;100194.66;5011024;23;20526;-71
2023/01/02 09:14:14;;;;;;;16.67;7.93;;;;;;;10.61;83.67;100197.69;5011910;23;20665;-77
2023/01/02 09:16:41;;;;;;;17.70;8.10;;;;;;;11.14;81.70;100205.66;5041148;23;20221;-68
2023/01/02 09:19:11;;;;;;;17.73;7.57;;;;;;;11.96;76.84;100218.66;5055454;23;20612;-70
2023/01/02 09:21:37;;;;;;;19.87;8.03;;;;;;;12.81;72.32;100223.97;5040461;23;20202;-71
2023/01/02 09:24:05;;;;;;;17.63;7.40;;;;;;;13.68;68.54;100238.50;5037909;23;20210;-72
2023/01/02 09:26:32;;;;;;;14.23;7.57;;;;;;;14.21;65.11;100238.84;5030658;23;20417;-68
2023/01/02 09:28:58;;;;;;;20.50;8.57;;;;;;;15.17;61.28;100234.97;5036292;23;20503;-70
2023/01/02 09:31:25;;;;;;;20.73;7.73;;;;;;;15.96;56.45;100239.09;5038307;23;20280;-67
2023/01/02 09:33:53;;;;;;;17.23;7.57;;;;;;;16.15;55.47;100235.00;5035887;23;20206;-70
2023/01/02 09:36:21;;;;;;;20.87;8.50;;;;;;;16.38;53.62;100233.03;5031930;23;20375;-66
2023/01/02 09:38:54;;;;;;;15.13;7.60;;;;;;;16.50;53.34;100229.88;5024159;23;25340;-67
2023/01/02 09:41:32;;;;;;;17.17;7.70;;;;;;;16.12;52.88;100243.44;5039601;23;20304;-70
2023/01/02 09:44:15;;;;;;;19.67;8.38;;;;;;;16.07;53.33;100233.25;5041276;23;20387;-69
2023/01/02 09:47:03;;;;;;;18.43;8.13;;;;;;;16.66;52.36;100240.38;5026167;23;20206;-69
2023/01/02 09:49:33;;;;;;;17.03;8.03;;;;;;;16.91;50.88;100232.84;5021600;23;20216;-69
2023/01/02 09:51:59;;;;;;;20.07;7.73;;;;;;;16.92;50.25;100230.97;5003641;23;20213;-68
2023/01/02 09:54:31;;;;;;;20.83;8.17;;;;;;;15.82;53.00;100219.28;5023824;23;20213;-70
2023/01/02 09:57:14;;;;;;;20.33;8.27;;;;;;;14.34;59.96;100207.00;5050513;23;22065;-68
2023/01/02 09:59:47;;;;;;;18.03;8.60;;;;;;;14.10;61.48;100202.59;5065809;23;20207;-68
2023/01/02 10:02:41;;;;;;;22.93;8.40;;;;;;;13.85;62.25;100196.50;5099414;23;20292;-68
2023/01/02 10:05:30;;;;;;;25.70;8.93;;;;;;;13.06;66.32;100176.72;5076749;23;20387;-68
2023/01/02 10:08:20;;;;;;;19.50;8.67;;;;;;;13.00;67.30;100170.22;5061547;23;20203;-64
2023/01/02 10:11:08;;;;;;;23.53;9.23;;;;;;;12.92;67.68;100166.69;5080846;23;23221;-65
2023/01/02 10:13:46;;;;;;;23.90;9.10;;;;;;;12.70;69.04;100161.03;5101436;23;20234;-66
2023/01/02 10:16:39;;;;;;;20.43;9.10;;;;;;;12.55;69.63;100155.50;5078102;23;20316;-63
2023/01/02 10:19:13;;;;;;;28.80;9.47;;;;;;;12.34;70.78;100152.44;5068270;23;24282;-64
2023/01/02 10:21:41;;;;;;;25.13;10.17;;;;;;;12.33;71.64;100158.78;5066821;23;20367;-63
2023/01/02 10:24:15;;;;;;;24.47;9.37;;;;;;;12.27;72.06;100157.63;5095007;23;20222;-68
2023/01/02 10:26:46;;;;;;;23.77;9.60;;;;;;;12.29;71.82;100160.09;5071817;23;22579;-64
2023/01/02 10:29:29;;;;;;;23.30;9.07;;;;;;;12.27;72.17;100154.94;5078953;23;20448;-66
2023/01/02 10:32:14;;;;;;;22.20;8.67;;;;;;;12.23;72.01;100146.44;5121393;23;20207;-66
2023/01/02 10:35:09;;;;;;;24.03;9.10;;;;;;;12.07;73.02;100129.53;5028364;23;21701;-62
2023/01/02 10:37:35;;;;;;;21.83;8.20;;;;;;;12.04;73.20;100128.03;5067261;23;22042;-65
2023/01/02 10:40:03;;;;;;;23.20;8.93;;;;;;;11.91;73.89;100123.16;5113828;23;21739;-64
2023/01/02 10:42:31;;;;;;;20.13;8.80;;;;;;;11.83;74.25;100121.25;5103711;23;20525;-64
2023/01/02 10:44:58;;;;;;;20.03;8.73;;;;;;;11.88;74.15;100128.81;5075626;23;20205;-65
2023/01/02 10:47:34;;;;;;;17.43;8.00;;;;;;;11.84;73.51;100130.91;5076972;23;20199;-67
2023/01/02 10:50:03;;;;;;;17.90;8.30;;;;;;;11.88;73.90;100117.31;5052656;23;20237;-66
2023/01/02 10:52:44;;;;;;;18.73;8.43;;;;;;;11.84;74.27;100133.59;5089959;23;20210;-66
2023/01/02 10:55:11;;;;;;;22.20;9.00;;;;;;;11.93;73.75;100123.00;5056961;23;20266;-66
2023/01/02 10:57:43;;;;;;;22.77;8.50;;;;;;;11.89;74.31;100121.66;5099061;23;20284;-65
2023/01/02 11:00:30;;;;;;;18.00;8.53;;;;;;;11.88;73.99;100126.16;5079674;23;20369;-65
2023/01/02 11:03:00;;;;;;;20.77;9.23;;;;;;;11.89;74.48;100113.66;5084517;23;24208;-67
2023/01/02 11:05:28;;;;;;;20.30;8.80;;;;;;;11.81;74.37;100109.91;5047263;23;20375;-65
2023/01/02 11:07:55;;;;;;;32.33;9.23;;;;;;;11.79;74.64;100119.06;5074312;23;20211;-64
2023/01/02 11:10:29;;;;;;;26.10;9.30;;;;;;;11.93;73.93;100128.34;5045042;23;20203;-61
2023/01/02 11:13:01;;;;;;;20.63;9.30;;;;;;;11.84;73.18;100119.44;5066522;23;20207;-65
2023/01/02 11:15:33;;;;;;;20.87;8.20;;;;;;;11.95;73.54;100113.00;5117779;23;23120;-67
2023/01/02 11:18:01;;;;;;;22.50;8.87;;;;;;;12.00;72.91;100116.03;5084580;23;20683;-66
2023/01/02 11:20:33;;;;;;;24.60;8.90;;;;;;;12.04;72.64;100120.88;5091670;23;20207;-66
2023/01/02 11:23:01;;;;;;;19.60;7.43;;;;;;;12.10;72.48;100124.72;5088195;23;20584;-66
2023/01/02 11:25:35;;;;;;;19.63;8.03;;;;;;;12.12;71.46;100122.72;5065778;23;20199;-67
2023/01/02 11:28:02;;;;;;;20.07;7.90;;;;;;;12.05;71.77;100108.34;5095988;23;21667;-64
2023/01/02 11:31:00;;;;;;;17.90;8.13;;;;;;;12.18;71.74;100111.41;5062049;23;20667;-65
2023/01/02 11:33:29;;;;;;;18.10;8.40;;;;;;;12.24;71.40;100097.41;5075418;23;21159;-64
2023/01/02 11:36:13;;;;;;;21.27;8.00;;;;;;;12.21;71.39;100099.56;5100226;23;20286;-66
2023/01/02 11:38:49;;;;;;;18.63;7.93;;;;;;;12.16;71.20;100092.06;5135060;23;21954;-65
2023/01/02 11:44:32;;;;;;;17.53;7.97;;;;;;;12.34;70.40;100083.06;5044945;23;20203;-40
2023/01/02 11:46:59;;;;;;;21.07;8.80;;;;;;;12.26;71.59;100086.56;5089823;23;20292;-70
2023/01/02 11:49:32;;;;;;;19.63;8.17;;;;;;;12.31;71.26;100099.41;5084098;23;20623;-69
2023/01/02 11:52:01;;;;;;;17.70;7.90;;;;;;;12.33;70.36;100086.75;5077318;23;20211;-69
2023/01/02 11:54:38;;;;;;;20.17;8.10;;;;;;;12.21;70.88;100089.72;5097614;23;20369;-64
2023/01/02 11:57:10;;;;;;;17.70;8.23;;;;;;;12.20;71.42;100081.91;5076163;23;21276;-68
2023/01/02 11:59:46;;;;;;;19.37;7.80;;;;;;;12.25;70.96;100091.06;5088366;23;20274;-67
2023/01/02 12:02:50;;;;;;;21.17;8.50;;;;;;;12.30;70.65;100093.25;5057455;23;25140;-69
2023/01/02 12:05:24;;;;;;;26.37;7.90;;;;;;;12.24;71.11;100088.56;5066916;23;21140;-71
2023/01/02 12:08:00;;;;;;;19.27;8.40;;;;;;;12.27;71.50;100093.59;5074946;23;20243;-69
2023/01/02 12:10:51;;;;;;;22.90;8.47;;;;;;;12.33;70.66;100086.75;5068017;23;20209;-69
2023/01/02 12:13:41;;;;;;;21.70;8.97;;;;;;;12.20;71.28;100082.72;5077521;23;20344;-69
2023/01/02 12:16:43;;;;;;;21.67;8.60;;;;;;;12.05;71.96;100084.34;5090708;23;20215;-68
2023/01/02 12:19:35;;;;;;;24.30;8.73;;;;;;;12.15;71.70;100085.06;5090497;23;20216;-67
2023/01/02 12:22:02;;;;;;;21.03;8.53;;;;;;;12.30;71.52;100079.09;5059126;23;20290;-71
2023/01/02 12:24:44;;;;;;;21.93;8.20;;;;;;;12.40;71.65;100063.75;5094506;23;20201;-71
2023/01/02 12:27:21;;;;;;;21.53;8.40;;;;;;;12.41;71.01;100065.41;5091149;23;21311;-69
2023/01/02 12:30:19;;;;;;;26.60;8.33;;;;;;;12.40;71.32;100058.41;5152414;23;23328;-67
2023/01/02 12:33:00;;;;;;;30.17;8.57;;;;;;;12.55;71.55;100045.22;5086621;23;22254;-70
2023/01/02 12:36:01;;;;;;;20.97;9.33;;;;;;;12.42;70.59;100051.91;5077568;23;20201;-69
2023/01/02 12:38:33;;;;;;;26.03;8.50;;;;;;;12.46;70.74;100055.06;5104555;23;20442;-68
2023/01/02 12:41:26;;;;;;;24.77;8.13;;;;;;;12.51;70.22;100047.41;5083853;23;20633;-71
2023/01/02 12:44:07;;;;;;;21.87;7.90;;;;;;;12.61;70.24;100061.41;5136940;23;20207;-73
2023/01/02 12:46:46;;;;;;;18.60;7.80;;;;;;;12.70;69.77;100056.06;5102534;23;20268;-71
2023/01/02 12:49:20;;;;;;;17.83;7.70;;;;;;;12.75;69.31;100051.06;5096940;23;20199;-69
2023/01/02 12:51:56;;;;;;;21.10;7.67;;;;;;;12.73;69.59;100047.72;5126453;23;20256;-69
2023/01/02 12:54:32;;;;;;;22.10;8.27;;;;;;;12.65;69.57;100038.72;5082895;23;21157;-71
2023/01/02 12:57:08;;;;;;;20.17;7.00;;;;;;;12.68;70.22;100030.34;5096785;23;20220;-75
2023/01/02 12:59:43;;;;;;;22.43;6.93;;;;;;;12.76;69.58;100040.22;5063980;23;23147;-71
2023/01/02 13:02:10;;;;;;;19.93;7.40;;;;;;;12.84;69.61;100039.38;5112799;23;20207;-71
2023/01/02 13:04:41;;;;;;;19.90;7.40;;;;;;;12.86;69.83;100037.38;5096342;23;21570;-71
2023/01/02 13:07:13;;;;;;;24.33;7.10;;;;;;;12.83;69.21;100024.31;5074892;23;20205;-73
2023/01/02 13:09:42;;;;;;;21.30;7.13;;;;;;;12.97;69.26;100031.66;5078976;23;20213;-70
2023/01/02 13:12:09;;;;;;;16.13;6.73;;;;;;;13.08;68.69;100033.13;5104733;23;20627;-74
2023/01/02 13:14:57;;;;;;;16.87;6.80;;;;;;;13.06;69.01;100045.81;5078889;23;20214;-72
2023/01/02 13:17:48;;;;;;;17.17;6.90;;;;;;;13.23;67.64;100036.78;5100232;23;21196;-74
2023/01/02 13:20:26;;;;;;;15.40;6.50;;;;;;;13.16;68.19;100034.94;5084145;23;20269;-72
2023/01/02 13:23:36;;;;;;;17.23;6.70;;;;;;;13.20;68.02;100028.25;5077241;23;20215;-74
2023/01/02 13:26:06;;;;;;;19.93;6.60;;;;;;;13.24;67.76;100016.22;5040250;23;20207;-70
2023/01/02 13:29:05;;;;;;;14.30;6.43;;;;;;;13.14;68.20;100023.63;4994546;23;23600;-72
2023/01/02 13:31:34;;;;;;;18.00;6.07;;;;;;;13.12;68.28;100026.44;5098735;23;20210;-71
2023/01/02 13:34:30;;;;;;;18.17;6.10;;;;;;;13.24;67.53;100029.56;5084909;23;20297;-75
2023/01/02 13:37:04;;;;;;;15.43;6.27;;;;;;;13.20;68.34;100030.91;5066599;23;20629;-71
2023/01/02 13:39:39;;;;;;;18.87;6.50;;;;;;;13.16;67.78;100025.09;5065260;23;21121;-67
2023/01/02 13:44:57;;;;;;;19.47;6.67;;;;;;;13.21;68.07;100027.25;5091293;23;20291;-73
2023/01/02 13:47:33;;;;;;;14.53;6.17;;;;;;;13.23;68.08;100027.94;5084970;23;20939;-67
2023/01/02 13:50:07;;;;;;;13.27;5.90;;;;;;;13.19;67.98;100029.28;5089685;23;20253;-69
2023/01/02 13:52:34;;;;;;;17.77;6.40;;;;;;;13.04;68.82;100029.97;5100965;23;23020;-70
2023/01/02 13:55:27;;;;;;;23.43;7.03;;;;;;;13.14;68.47;100032.44;5083691;23;20330;-72
2023/01/02 13:58:12;;;;;;;18.93;7.90;;;;;;;13.10;68.79;100029.28;5070954;23;20749;-71
2023/01/02 14:00:45;;;;;;;17.30;6.80;;;;;;;13.06;68.86;100035.13;5084717;23;20205;-68
2023/01/02 14:03:20;;;;;;;15.37;7.20;;;;;;;13.16;68.78;100029.59;5102916;23;20263;-69
2023/01/02 14:05:57;;;;;;;18.37;6.80;;;;;;;13.13;68.94;100024.59;5067132;23;20253;-67
2023/01/02 14:08:31;;;;;;;17.97;6.50;;;;;;;13.02;69.36;100034.66;5141233;23;21044;-70
2023/01/02 14:11:09;;;;;;;13.50;6.20;;;;;;;13.00;69.75;100031.31;5088512;23;21393;-70
2023/01/02 14:13:50;;;;;;;13.73;6.83;;;;;;;12.95;69.97;100028.34;5051868;23;20805;-69
2023/01/02 14:16:42;;;;;;;17.40;6.53;;;;;;;12.97;69.55;100022.78;5046850;23;21582;-71
2023/01/02 14:19:11;;;;;;;17.20;6.87;;;;;;;12.84;69.94;100020.66;5129044;23;21950;-70
2023/01/02 14:21:43;;;;;;;15.60;6.83;;;;;;;12.77;70.57;100014.34;5072495;23;20673;-69
2023/01/02 14:24:11;;;;;;;17.70;7.00;;;;;;;12.71;70.71;100010.50;5071273;23;20210;-70
2023/01/02 14:26:51;;;;;;;18.27;6.63;;;;;;;12.77;71.21;100007.16;5078292;23;20584;-71
2023/01/02 14:29:19;;;;;;;17.87;6.60;;;;;;;12.76;70.65;100004.66;5077541;23;20209;-72
2023/01/02 14:31:46;;;;;;;16.97;6.37;;;;;;;12.82;71.07;100007.47;5076499;23;20227;-71
2023/01/02 14:34:22;;;;;;;16.30;7.10;;;;;;;12.76;71.07;100001.97;5053854;23;20873;-70
2023/01/02 14:36:49;;;;;;;19.27;6.77;;;;;;;12.79;70.61;100001.66;5048591;23;20422;-72
2023/01/02 14:39:24;;;;;;;20.20;6.70;;;;;;;12.68;71.00;99992.97;5132253;23;20272;-72
2023/01/02 14:44:43;;;;;;;19.83;7.03;;;;;;;12.63;71.97;99995.34;5077076;23;20209;-71
2023/01/02 14:47:15;;;;;;;12.93;6.07;;;;;;;12.61;72.01;99994.66;5074815;23;22226;-72
2023/01/02 14:49:43;;;;;;;15.17;7.10;;;;;;;12.59;72.35;99995.84;5064263;23;20294;-72
2023/01/02 14:52:14;;;;;;;16.63;7.00;;;;;;;12.41;72.99;99998.72;5069093;23;20264;-71
2023/01/02 14:54:47;;;;;;;18.07;6.67;;;;;;;12.49;72.87;100008.53;5110739;23;20208;-71
2023/01/02 14:57:28;;;;;;;19.70;7.43;;;;;;;12.52;72.91;100000.19;5025055;23;20531;-71
2023/01/02 14:59:55;;;;;;;24.00;7.33;;;;;;;12.49;73.10;99988.00;5034804;23;20226;-71
2023/01/02 15:02:29;;;;;;;19.77;7.00;;;;;;;12.41;73.19;99996.88;5061105;23;20891;-70
2023/01/02 15:05:05;;;;;;;18.40;7.27;;;;;;;12.39;72.87;100003.38;5080854;23;20286;-69
2023/01/02 15:07:35;;;;;;;23.53;7.00;;;;;;;12.39;73.59;100008.72;5043853;23;23331;-72
2023/01/02 15:10:06;;;;;;;21.73;7.20;;;;;;;12.32;73.73;100005.06;5137915;23;20204;-71
2023/01/02 15:15:28;;;;;;;22.87;8.00;;;;;;;12.28;74.26;99995.69;5079141;23;22924;-70
2023/01/02 15:18:00;;;;;;;22.00;8.17;;;;;;;12.33;73.47;99998.69;5085624;23;21198;-70
2023/01/02 15:20:27;;;;;;;15.50;6.80;;;;;;;12.27;73.91;99996.69;5053008;23;20204;-72
2023/01/02 15:22:55;;;;;;;24.97;7.57;;;;;;;12.19;74.16;99997.53;5054892;23;20407;-70
2023/01/02 15:25:36;;;;;;;22.37;8.20;;;;;;;12.15;75.07;99997.03;5059433;23;22917;-69
2023/01/02 15:28:04;;;;;;;27.17;8.20;;;;;;;12.13;74.48;100004.38;5112155;23;20471;-71
2023/01/02 15:30:37;;;;;;;29.03;8.60;;;;;;;12.15;74.77;100010.38;5116773;23;25097;-68
2023/01/02 15:33:04;;;;;;;22.80;8.17;;;;;;;12.13;75.76;100012.38;5059204;23;22788;-70
2023/01/02 15:35:34;;;;;;;24.03;8.57;;;;;;;12.11;75.37;100011.69;5092143;23;20246;-72
2023/01/02 15:38:03;;;;;;;25.27;8.73;;;;;;;12.13;75.19;100023.03;5041877;23;20779;-72
2023/01/02 15:40:32;;;;;;;20.60;8.20;;;;;;;11.95;75.94;100014.34;5084287;23;22336;-71
2023/01/02 15:45:50;;;;;;;20.30;9.13;;;;;;;11.87;76.31;100019.63;5093101;23;25404;-72
2023/01/02 15:48:20;;;;;;;20.07;8.27;;;;;;;11.95;76.05;100022.34;5078196;23;21187;-72
2023/01/02 15:50:49;;;;;;;29.97;9.20;;;;;;;11.95;75.94;100028.50;5075344;23;20254;-70
2023/01/02 15:53:22;;;;;;;29.47;8.40;;;;;;;11.79;76.77;100023.94;5065587;23;20578;-69
2023/01/02 15:55:49;;;;;;;24.93;8.80;;;;;;;11.82;76.95;100033.44;5044841;23;21189;-71
2023/01/02 15:58:16;;;;;;;20.60;9.07;;;;;;;11.77;77.35;100027.75;5051722;23;20199;-71
2023/01/02 16:00:43;;;;;;;23.20;8.67;;;;;;;11.78;77.10;100024.13;5050258;23;20289;-73
2023/01/02 16:03:15;;;;;;;28.17;9.37;;;;;;;11.83;77.32;100011.97;5079107;23;20313;-71
2023/01/02 16:06:05;;;;;;;24.87;8.47;;;;;;;11.82;77.43;100018.28;5072973;23;20204;-70
2023/01/02 16:08:33;;;;;;;25.83;8.80;;;;;;;11.74;77.11;100012.09;5064407;23;20234;-69
2023/01/02 16:11:04;;;;;;;25.23;9.37;;;;;;;11.70;77.96;99998.25;5078942;23;20644;-70
2023/01/02 16:16:19;;;;;;;23.93;8.87;;;;;;;11.58;78.51;99994.22;5051435;23;20205;-71
2023/01/02 16:18:50;;;;;;;23.10;9.03;;;;;;;11.60;78.63;99994.91;5049542;23;20208;-76
2023/01/02 16:21:17;;;;;;;24.80;9.77;;;;;;;11.72;78.39;99985.59;5080149;23;21284;-71
2023/01/02 16:23:49;;;;;;;21.33;8.47;;;;;;;11.71;78.51;99985.78;5051860;23;22974;-72
2023/01/02 16:26:17;;;;;;;21.20;9.13;;;;;;;11.61;78.33;99992.09;5047492;23;20200;-70
2023/01/02 16:28:44;;;;;;;22.93;9.37;;;;;;;11.67;79.07;99989.75;5053871;23;20886;-70
2023/01/02 16:31:20;;;;;;;25.47;10.07;;;;;;;11.61;79.52;99991.22;5055256;23;21775;-67
2023/01/02 16:33:47;;;;;;;23.97;9.77;;;;;;;11.63;79.20;99991.91;5068008;23;20304;-70
2023/01/02 16:36:13;;;;;;;23.23;9.67;;;;;;;11.57;79.34;99989.91;5037884;23;20277;-69
2023/01/02 16:38:49;;;;;;;22.80;9.63;;;;;;;11.47;80.15;99983.88;5074152;23;21940;-70
2023/01/02 16:41:37;;;;;;;24.13;9.50;;;;;;;11.49;79.19;99987.22;5070183;23;20206;-70
2023/01/02 16:44:11;;;;;;;22.80;10.03;;;;;;;11.47;79.95;99991.88;5055487;23;20207;-67
2023/01/02 16:46:38;;;;;;;25.57;9.77;;;;;;;11.53;79.49;99988.56;5047750;23;20203;-66
2023/01/02 16:49:06;;;;;;;21.53;9.27;;;;;;;11.49;79.12;99977.38;5038225;23;20294;-69
2023/01/02 16:51:33;;;;;;;24.60;9.93;;;;;;;11.44;79.81;99966.38;5086476;23;20204;-70
2023/01/02 16:53:59;;;;;;;18.33;8.87;;;;;;;11.37;80.24;99963.53;5065836;23;20250;-70
2023/01/02 16:56:26;;;;;;;23.03;10.17;;;;;;;11.30;80.48;99959.84;5063377;23;23878;-72
2023/01/02 16:58:53;;;;;;;28.77;10.83;;;;;;;11.37;79.93;99960.84;5063437;23;20223;-70
2023/01/02 17:01:21;;;;;;;22.93;10.10;;;;;;;11.34;80.32;99963.03;5041527;23;21243;-71
2023/01/02 17:03:47;;;;;;;26.13;10.47;;;;;;;11.28;81.15;99975.16;5076202;23;21428;-74
2023/01/02 17:06:17;;;;;;;30.20;11.13;;;;;;;11.21;80.97;99979.44;5083192;23;20251;-71
2023/01/02 17:08:46;;;;;;;25.23;11.20;;;;;;;11.23;80.68;99981.97;5058978;23;20258;-72
2023/01/02 17:11:15;;;;;;;22.23;9.87;;;;;;;11.35;80.08;99994.81;5058010;23;20204;-71
2023/01/02 17:13:41;;;;;;;23.33;9.33;;;;;;;11.28;80.63;99985.81;5065011;23;24984;-73
2023/01/02 17:16:08;;;;;;;26.77;10.13;;;;;;;11.25;81.41;99991.47;5069012;23;25906;-71
2023/01/02 17:18:35;;;;;;;20.90;9.70;;;;;;;11.28;81.25;99987.63;5015914;23;20938;-71
2023/01/02 17:21:02;;;;;;;21.80;9.60;;;;;;;11.31;81.17;99980.16;5073391;23;20698;-70
2023/01/02 17:23:29;;;;;;;22.80;9.87;;;;;;;11.18;81.93;99977.13;5067488;23;20268;-70
2023/01/02 17:25:55;;;;;;;21.77;9.70;;;;;;;11.14;81.40;99967.75;5041426;23;20239;-69
2023/01/02 17:28:22;;;;;;;21.27;9.97;;;;;;;11.17;81.68;99970.13;5077166;23;20504;-70
2023/01/02 17:30:50;;;;;;;24.97;9.63;;;;;;;11.10;82.47;99967.28;5077548;23;20203;-70
2023/01/02 17:33:17;;;;;;;22.30;10.30;;;;;;;11.07;82.48;99964.91;5086380;23;20226;-73
2023/01/02 17:35:45;;;;;;;27.60;11.20;;;;;;;11.00;83.07;99971.88;5047593;23;21359;-71
2023/01/02 17:38:12;;;;;;;15.53;8.50;;;;;;;10.95;83.41;99972.34;5071113;23;20378;-70
2023/01/02 17:40:38;;;;;;;18.23;8.97;;;;;;;10.94;83.82;99970.69;5084828;23;20508;-71
2023/01/02 17:43:05;;;;;;;23.77;10.10;;;;;;;10.93;83.72;99977.00;5075624;23;20201;-72
2023/01/02 17:45:31;;;;;;;22.03;9.47;;;;;;;10.91;84.29;99976.34;5042059;23;20201;-71
2023/01/02 17:47:58;;;;;;;25.13;10.50;;;;;;;10.89;84.37;99966.84;5035443;23;24995;-71
2023/01/02 17:50:33;;;;;;;25.87;10.23;;;;;;;10.81;85.79;99964.94;5072980;23;20203;-73
2023/01/02 17:52:59;;;;;;;19.83;9.90;;;;;;;10.89;85.17;99967.66;5053799;23;21972;-71
2023/01/02 17:55:26;;;;;;;25.57;10.17;;;;;;;10.96;84.42;99971.38;5061646;23;20574;-71
2023/01/02 17:57:52;;;;;;;23.83;10.10;;;;;;;11.02;84.63;99974.38;5033423;23;21734;-72
2023/01/02 18:00:22;;;;;;;26.27;10.00;;;;;;;10.93;85.10;99971.69;5059430;23;20208;-67
2023/01/02 18:02:50;;;;;;;20.57;9.93;;;;;;;10.84;85.86;99977.97;5061300;23;20208;-66
2023/01/02 18:05:17;;;;;;;26.87;10.03;;;;;;;10.85;86.65;99974.28;5048890;23;20566;-67
2023/01/02 18:07:44;;;;;;;24.20;10.90;;;;;;;10.71;87.32;99988.19;5063155;23;20225;-68
2023/01/02 18:10:11;;;;;;;21.27;9.90;;;;;;;10.80;86.59;99987.25;5089849;23;20234;-69
2023/01/02 18:12:45;;;;;;;23.23;10.07;;;;;;;10.76;86.95;99980.56;5056795;23;20215;-71
2023/01/02 18:15:14;;;;;;;22.50;10.37;;;;;;;10.77;87.06;99972.44;5085712;23;26424;-68
2023/01/02 18:17:40;;;;;;;26.20;10.43;;;;;;;10.70;87.80;99970.53;5082649;23;20267;-71
2023/01/02 18:20:12;;;;;;;21.90;9.67;;;;;;;10.74;87.87;99971.91;5038634;23;20397;-68
2023/01/02 18:22:39;;;;;;;20.27;9.60;;;;;;;10.71;88.30;99982.88;5077290;23;20218;-70
2023/01/02 18:25:28;;;;;;;24.37;10.90;;;;;;;10.70;88.15;99983.84;5064340;23;22848;-71
2023/01/02 18:27:59;;;;;;;21.13;10.23;;;;;;;10.65;88.90;99984.34;5104444;23;21609;-71
2023/01/02 18:30:26;;;;;;;22.47;10.60;;;;;;;10.61;88.92;99987.47;5069618;23;21763;-70
2023/01/02 18:33:11;;;;;;;22.20;10.93;;;;;;;10.71;88.40;99977.53;5040376;23;20204;-69
2023/01/02 18:35:38;;;;;;;24.43;10.80;;;;;;;10.70;88.25;99975.84;5041541;23;20371;-67
2023/01/02 18:38:36;;;;;;;23.07;10.30;;;;;;;10.67;88.40;99965.53;5078557;23;20232;-70
2023/01/02 18:41:24;;;;;;;21.57;10.70;;;;;;;10.64;88.25;99972.00;5130210;23;20244;-68
2023/01/02 18:44:03;;;;;;;23.70;11.83;;;;;;;10.67;89.01;99970.84;5065821;23;20330;-66
2023/01/02 18:46:34;;;;;;;25.27;12.13;;;;;;;10.68;88.24;99961.91;5046624;23;22042;-70
2023/01/02 18:49:27;;;;;;;26.33;11.97;;;;;;;10.59;88.73;99957.53;5086900;23;20277;-68
2023/01/02 18:52:09;;;;;;;28.40;11.40;;;;;;;10.60;88.66;99951.19;5085369;23;20208;-70
2023/01/02 18:54:40;;;;;;;25.00;12.07;;;;;;;10.62;88.91;99957.19;5085098;23;25907;-55
2023/01/02 18:57:14;;;;;;;24.90;12.07;;;;;;;10.55;89.58;99949.84;5098287;23;21056;-69
2023/01/02 18:59:43;;;;;;;30.33;11.60;;;;;;;10.48;89.25;99956.78;5109199;23;23327;-67
2023/01/02 19:02:38;;;;;;;29.53;12.17;;;;;;;10.54;89.75;99956.16;5071775;23;21719;-68
2023/01/02 19:05:29;;;;;;;25.03;11.53;;;;;;;10.49;88.96;99952.31;5091925;23;21155;-68
2023/01/02 19:08:12;;;;;;;25.93;11.93;;;;;;;10.59;89.06;99949.53;5076961;23;20209;-68
2023/01/02 19:10:41;;;;;;;29.90;11.90;;;;;;;10.50;89.84;99948.63;5092544;23;20208;-69
2023/01/02 19:13:17;;;;;;;25.93;12.03;;;;;;;10.49;89.49;99958.47;5047693;23;21950;-69
2023/01/02 19:15:59;;;;;;;23.30;11.27;;;;;;;10.48;90.04;99955.94;5085926;23;21955;-69
2023/01/02 19:18:41;;;;;;;26.20;10.50;;;;;;;10.60;89.14;99948.53;5052960;23;20212;-70
2023/01/02 19:21:08;;;;;;;32.87;11.77;;;;;;;10.46;90.27;99948.09;5028267;23;21757;-74
2023/01/02 19:23:55;;;;;;;26.60;11.97;;;;;;;10.43;90.22;99961.72;5117232;23;20883;-73
2023/01/02 19:26:38;;;;;;;26.03;10.97;;;;;;;10.41;89.67;99961.03;5178707;23;20235;-71
2023/01/02 19:29:10;;;;;;;22.60;11.20;;;;;;;10.35;90.32;99956.38;5094053;23;21638;-70
2023/01/02 19:31:49;;;;;;;24.07;11.70;;;;;;;10.33;90.80;99958.34;5073519;23;20509;-69
2023/01/02 19:34:22;;;;;;;26.27;11.60;;;;;;;10.17;90.96;99952.88;5038411;23;26247;-66
2023/01/02 19:36:52;;;;;;;27.00;11.83;;;;;;;10.20;91.31;99957.88;5024692;23;20216;-69
2023/01/02 19:39:36;;;;;;;25.63;11.87;;;;;;;10.25;90.64;99960.91;5031511;23;20200;-73
2023/01/02 19:42:19;;;;;;;25.37;11.83;;;;;;;10.26;90.90;99962.59;5055123;23;20258;-68
2023/01/02 19:44:56;;;;;;;26.17;11.07;;;;;;;10.13;91.15;99969.09;5055555;23;20248;-69
2023/01/02 19:47:25;;;;;;;22.07;10.87;;;;;;;10.24;91.05;99969.88;5071888;23;20655;-69
2023/01/02 19:49:53;;;;;;;24.30;11.10;;;;;;;10.13;91.06;99962.97;5089299;23;20690;-71
2023/01/02 19:52:20;;;;;;;29.10;11.40;;;;;;;10.13;91.04;99958.47;5088538;23;20275;-69
2023/01/02 19:54:47;;;;;;;24.87;10.73;;;;;;;10.14;91.12;99964.66;5059622;23;20219;-71
2023/01/02 19:57:19;;;;;;;22.83;10.47;;;;;;;10.23;91.37;99963.72;5056467;23;20427;-70
2023/01/02 19:59:48;;;;;;;20.70;10.57;;;;;;;10.20;90.39;99973.81;5083643;23;20262;-68
2023/01/02 20:02:19;;;;;;;24.73;10.37;;;;;;;10.00;91.96;99974.00;5053314;23;20261;-68
2023/01/02 20:04:48;;;;;;;26.03;10.97;;;;;;;9.97;92.55;99974.28;5092048;23;20223;-68
2023/01/02 20:07:15;;;;;;;24.33;11.00;;;;;;;9.92;92.86;99964.09;5073036;23;20646;-68
2023/01/02 20:09:42;;;;;;;23.77;11.00;;;;;;;9.80;94.01;99965.34;5066325;23;21178;-67
2023/01/02 20:14:55;;;;;;;19.00;9.43;;;;;;;9.86;94.12;99963.91;5078446;23;22328;-67
2023/01/02 20:17:22;;;;;;;21.07;9.87;;;;;;;9.91;93.97;99969.59;5085947;23;21910;-65
2023/01/02 20:19:52;;;;;;;21.07;10.57;;;;;;;9.81;94.78;99992.72;5092866;23;21755;-68
2023/01/02 20:22:20;;;;;;;19.30;9.43;;;;;;;9.83;94.74;99986.31;5046946;23;20201;-67
2023/01/02 20:24:46;;;;;;;22.90;10.37;;;;;;;9.82;94.44;99995.25;5058888;23;20204;-66
2023/01/02 20:27:14;;;;;;;19.80;9.97;;;;;;;9.80;94.20;99983.09;5076189;23;20212;-69
2023/01/02 20:29:41;;;;;;;19.40;10.00;;;;;;;9.80;94.94;99988.41;5117618;23;22984;-68
2023/01/02 20:32:08;;;;;;;18.83;9.30;;;;;;;9.78;95.12;99991.22;5113582;23;20209;-69
2023/01/02 20:34:34;;;;;;;19.10;9.13;;;;;;;9.82;94.68;99986.44;5055238;23;21354;-68
2023/01/02 20:37:01;;;;;;;27.23;10.47;;;;;;;9.81;95.43;99987.41;5061350;23;20224;-68
2023/01/02 20:39:28;;;;;;;21.67;9.77;;;;;;;9.79;95.34;99992.91;5037183;23;20687;-69
2023/01/02 20:42:05;;;;;;;22.63;10.73;;;;;;;9.85;95.44;99991.44;5173104;23;20206;-69
2023/01/02 20:44:39;;;;;;;26.47;10.70;;;;;;;9.86;95.50;100001.13;5060158;23;21131;-68
2023/01/02 20:47:06;;;;;;;26.30;10.47;;;;;;;9.85;96.14;99992.28;5034415;23;20209;-70
2023/01/02 20:49:32;;;;;;;22.80;10.03;;;;;;;9.79;95.72;99992.06;5057581;23;20204;-66
2023/01/02 20:51:59;;;;;;;20.43;10.27;;;;;;;9.78;96.27;99977.09;5067282;23;20215;-67
2023/01/02 20:54:26;;;;;;;24.33;10.70;;;;;;;9.76;96.07;99979.06;5072615;23;20220;-68
2023/01/02 20:56:53;;;;;;;19.17;10.03;;;;;;;9.70;95.97;99986.66;5041455;23;20297;-70
2023/01/02 20:59:20;;;;;;;21.47;10.20;;;;;;;9.71;95.67;99990.97;5075621;23;20212;-69
2023/01/02 21:01:47;;;;;;;19.93;9.93;;;;;;;9.73;95.56;99990.84;5040669;23;20270;-68